Time;durP1;ratioP1;P1;durP2;ratioP2;P2;SDS_P1;SDS_P2;PMS_P1;PMS_P2;Temp;Humidity;BMP_temperature;BMP_pressure;BME280_temperature;BME280_humidity;BME280_pressure;Samples;Min_cycle;Max_cycle;Signal;HPM_P1;HPM_P2
2021/12/06 00:01:01;;;;;;;83.20;14.70;;;;;;;-1.81;100.00;95412.84;5025275;28;20468;-75
2021/12/06 00:03:38;;;;;;;120.53;16.53;;;;;;;-1.71;100.00;95413.88;5019980;28;21007;-75
2021/12/06 00:06:04;;;;;;;89.40;15.30;;;;;;;-1.72;100.00;95415.63;5008637;28;21092;-75
2021/12/06 00:08:30;;;;;;;309.50;28.97;;;;;;;-1.85;100.00;95414.81;5029810;28;20583;-75
2021/12/06 00:10:56;;;;;;;266.07;25.77;;;;;;;-1.80;100.00;95419.69;5018160;28;20551;-75
2021/12/06 00:13:23;;;;;;;343.03;32.83;;;;;;;-1.81;100.00;95425.75;5022446;28;21056;-75
2021/12/06 00:15:51;;;;;;;120.50;16.63;;;;;;;-1.72;100.00;95430.28;5030098;28;20402;-75
2021/12/06 00:18:18;;;;;;;188.87;20.33;;;;;;;-1.72;100.00;95433.69;5013302;28;20450;-75
2021/12/06 00:20:45;;;;;;;72.13;13.43;;;;;;;-1.58;100.00;95429.34;5019170;28;21019;-76
2021/12/06 00:23:11;;;;;;;128.57;15.93;;;;;;;-1.71;100.00;95432.78;5015330;28;20449;-75
2021/12/06 00:25:37;;;;;;;195.37;20.00;;;;;;;-1.65;100.00;95444.41;5035380;28;20527;-74
2021/12/06 00:28:03;;;;;;;34.23;12.33;;;;;;;-1.49;100.00;95433.88;5021337;28;20464;-75
2021/12/06 00:30:29;;;;;;;121.53;18.00;;;;;;;-1.53;100.00;95437.59;5024303;28;20478;-75
2021/12/06 00:32:55;;;;;;;145.30;18.47;;;;;;;-1.54;100.00;95441.09;5028420;28;20574;-75
2021/12/06 00:35:23;;;;;;;174.53;19.33;;;;;;;-1.61;100.00;95440.72;5008877;28;20451;-74
2021/12/06 00:37:58;;;;;;;200.27;20.03;;;;;;;-1.71;100.00;95442.22;5021006;28;20080;-75
2021/12/06 00:40:28;;;;;;;79.27;13.33;;;;;;;-1.63;100.00;95449.47;5028443;28;20989;-75
2021/12/06 00:42:54;;;;;;;279.70;25.47;;;;;;;-1.72;100.00;95451.72;5019258;28;20832;-75
2021/12/06 00:45:22;;;;;;;36.67;9.77;;;;;;;-1.60;100.00;95454.41;5010785;28;20530;-75
2021/12/06 00:47:47;;;;;;;146.47;16.27;;;;;;;-1.66;100.00;95460.81;5030647;28;20781;-74
2021/12/06 00:50:15;;;;;;;136.63;14.77;;;;;;;-1.57;100.00;95461.94;5022884;28;21068;-75
2021/12/06 00:52:41;;;;;;;293.53;25.47;;;;;;;-1.72;100.00;95464.59;5031821;28;20032;-75
2021/12/06 00:55:09;;;;;;;130.70;14.23;;;;;;;-1.75;100.00;95466.56;5023475;28;20522;-75
2021/12/06 00:57:39;;;;;;;78.60;11.43;;;;;;;-1.75;100.00;95464.81;5020790;28;20104;-74
2021/12/06 01:00:14;;;;;;;58.73;9.63;;;;;;;-1.78;100.00;95464.19;5005593;28;20510;-74
2021/12/06 01:02:41;;;;;;;103.33;12.30;;;;;;;-1.82;100.00;95473.06;5024244;28;20452;-75
2021/12/06 01:05:08;;;;;;;113.50;13.53;;;;;;;-1.81;100.00;95478.13;5007617;28;20483;-75
2021/12/06 01:07:35;;;;;;;187.67;17.47;;;;;;;-1.90;100.00;95471.84;5012771;28;20470;-75
2021/12/06 01:10:01;;;;;;;29.73;8.70;;;;;;;-1.76;100.00;95476.06;5018209;28;20448;-75
2021/12/06 01:12:26;;;;;;;116.60;14.93;;;;;;;-1.81;100.00;95483.28;5026537;28;20055;-74
2021/12/06 01:14:52;;;;;;;440.87;32.43;;;;;;;-1.88;100.00;95479.44;5002809;28;21150;-75
2021/12/06 01:17:18;;;;;;;295.60;22.63;;;;;;;-1.90;100.00;95473.59;5028251;28;20025;-75
2021/12/06 01:19:44;;;;;;;151.10;17.80;;;;;;;-1.96;100.00;95492.03;5008571;28;20032;-75
2021/12/06 01:24:44;;;;;;;301.90;23.30;;;;;;;-2.10;100.00;95502.41;5026601;28;20053;-76
2021/12/06 01:27:45;;;;;;;311.03;24.10;;;;;;;-2.10;100.00;95502.41;5013828;28;20468;-75
2021/12/06 01:40:26;;;;;;;175.17;15.67;;;;;;;-2.20;100.00;95508.16;5039298;28;20475;-75
2021/12/06 01:42:53;;;;;;;108.13;12.17;;;;;;;-2.22;100.00;95519.47;5008284;28;20460;-75
2021/12/06 01:45:20;;;;;;;187.93;16.10;;;;;;;-2.24;100.00;95521.34;5016745;28;20472;-75
2021/12/06 01:47:47;;;;;;;177.40;14.93;;;;;;;-2.32;100.00;95524.38;5010303;28;20456;-76
2021/12/06 01:50:20;;;;;;;95.70;10.53;;;;;;;-2.25;100.00;95528.22;5014434;28;20432;-75
2021/12/06 01:52:52;;;;;;;121.70;11.00;;;;;;;-2.26;100.00;95533.47;5018895;28;20864;-75
2021/12/06 01:55:25;;;;;;;66.30;9.77;;;;;;;-2.28;100.00;95525.88;5023410;28;20474;-75
2021/12/06 01:57:53;;;;;;;219.35;18.70;;;;;;;-2.28;100.00;95525.88;5020913;28;20830;-75
2021/12/06 02:00:30;;;;;;;138.63;14.40;;;;;;;-2.14;100.00;95532.72;5008276;28;20929;-75
2021/12/06 02:03:02;;;;;;;187.87;17.03;;;;;;;-2.18;100.00;95526.94;5028853;28;20479;-75
2021/12/06 02:05:35;;;;;;;53.70;11.13;;;;;;;-2.11;100.00;95532.50;5029341;28;20554;-76
2021/12/06 02:08:04;;;;;;;349.37;27.10;;;;;;;-2.22;100.00;95528.03;5002051;28;20895;-75
2021/12/06 02:10:30;;;;;;;31.60;9.20;;;;;;;-2.11;100.00;95531.66;5006486;28;20448;-75
2021/12/06 02:12:56;;;;;;;43.40;10.33;;;;;;;-2.01;100.00;95528.41;5013658;28;21408;-75
2021/12/06 02:15:37;;;;;;;20.17;8.40;;;;;;;-1.93;100.00;95535.63;5003870;28;21028;-75
2021/12/06 02:18:26;;;;;;;60.10;12.40;;;;;;;-2.03;100.00;95535.41;5031753;28;20474;-75
2021/12/06 02:21:01;;;;;;;59.63;10.67;;;;;;;-2.02;100.00;95537.03;5033364;28;20515;-75
2021/12/06 02:23:28;;;;;;;110.63;14.10;;;;;;;-2.01;100.00;95545.59;5019204;28;20479;-75
2021/12/06 02:25:54;;;;;;;114.47;14.70;;;;;;;-1.93;100.00;95549.34;5020940;28;20452;-75
2021/12/06 02:28:20;;;;;;;203.87;19.43;;;;;;;-1.94;100.00;95549.44;5031605;28;20443;-75
2021/12/06 02:30:46;;;;;;;44.67;10.10;;;;;;;-1.86;100.00;95547.19;5020338;28;20484;-75
2021/12/06 02:33:13;;;;;;;169.53;18.43;;;;;;;-2.01;100.00;95548.16;5029437;28;20468;-75
2021/12/06 02:35:39;;;;;;;16.90;9.83;;;;;;;-1.91;100.00;95554.41;5010354;28;20021;-75
2021/12/06 02:38:07;;;;;;;137.40;15.33;;;;;;;-2.03;100.00;95553.44;5009870;28;20554;-75
2021/12/06 02:40:37;;;;;;;19.17;9.30;;;;;;;-1.96;100.00;95554.69;5018196;28;20530;-76
2021/12/06 02:43:06;;;;;;;14.40;8.07;;;;;;;-1.91;100.00;95547.50;5014189;28;20486;-75
2021/12/06 02:45:32;;;;;;;148.10;13.27;;;;;;;-1.86;100.00;95556.66;5012682;28;21003;-76
2021/12/06 02:48:01;;;;;;;40.03;9.30;;;;;;;-1.90;100.00;95556.03;5011400;28;20464;-75
2021/12/06 02:50:36;;;;;;;145.90;16.27;;;;;;;-1.92;100.00;95556.13;5006989;28;20456;-75
2021/12/06 02:53:03;;;;;;;42.77;9.50;;;;;;;-1.95;100.00;95551.16;5028209;28;20495;-75
2021/12/06 02:55:36;;;;;;;27.13;8.20;;;;;;;-2.05;100.00;95552.69;5012415;28;20895;-75
2021/12/06 02:58:16;;;;;;;36.20;8.33;;;;;;;-1.92;100.00;95555.31;5028472;28;20478;-75
2021/12/06 03:00:47;;;;;;;35.67;9.00;;;;;;;-2.00;100.00;95560.97;5014958;28;20464;-75
2021/12/06 03:03:14;;;;;;;13.30;7.77;;;;;;;-1.86;100.00;95552.34;5015974;28;20530;-75
2021/12/06 03:05:40;;;;;;;15.07;8.97;;;;;;;-1.83;100.00;95562.44;5016126;28;20981;-75
2021/12/06 03:08:06;;;;;;;14.07;7.67;;;;;;;-1.78;100.00;95555.22;5032340;28;20465;-75
2021/12/06 03:10:33;;;;;;;22.00;8.43;;;;;;;-1.83;100.00;95565.03;5015111;28;20467;-75
2021/12/06 03:12:58;;;;;;;119.47;14.50;;;;;;;-1.85;100.00;95571.19;5033952;28;20141;-75
2021/12/06 03:15:24;;;;;;;114.93;13.83;;;;;;;-1.88;100.00;95567.06;5014808;28;20517;-76
2021/12/06 03:17:50;;;;;;;18.70;7.20;;;;;;;-1.85;100.00;95574.59;5033118;28;20049;-75
2021/12/06 03:20:16;;;;;;;30.13;8.87;;;;;;;-1.85;100.00;95578.94;5029645;28;20463;-75
2021/12/06 03:22:44;;;;;;;23.40;7.93;;;;;;;-1.85;100.00;95581.50;5033584;28;20073;-75
2021/12/06 03:25:12;;;;;;;17.17;7.50;;;;;;;-1.79;100.00;95586.25;5016508;28;20496;-75
2021/12/06 03:27:38;;;;;;;123.40;11.87;;;;;;;-1.85;100.00;95579.75;5000819;28;20873;-76
2021/12/06 03:30:07;;;;;;;40.73;9.97;;;;;;;-1.88;100.00;95584.28;5024007;28;20527;-76
2021/12/06 03:32:34;;;;;;;67.13;9.20;;;;;;;-1.92;100.00;95589.63;5025473;28;20082;-75
2021/12/06 03:35:03;;;;;;;68.20;10.30;;;;;;;-1.87;100.00;95580.81;5006426;28;20503;-74
2021/12/06 03:37:29;;;;;;;26.73;7.57;;;;;;;-1.86;100.00;95590.16;5021916;28;21092;-75
2021/12/06 03:39:55;;;;;;;16.57;7.17;;;;;;;-1.81;100.00;95588.09;5023260;28;20580;-75
2021/12/06 03:42:25;;;;;;;15.37;7.20;;;;;;;-1.78;100.00;95585.34;5024492;28;20092;-75
2021/12/06 03:44:53;;;;;;;26.03;7.60;;;;;;;-1.83;100.00;95593.38;5033651;28;20484;-76
2021/12/06 03:47:23;;;;;;;31.37;8.30;;;;;;;-1.79;100.00;95594.81;5006241;28;20458;-75
2021/12/06 03:49:50;;;;;;;107.20;11.57;;;;;;;-1.98;100.00;95605.50;5013433;28;20477;-75
2021/12/06 03:52:18;;;;;;;95.50;10.20;;;;;;;-2.04;100.00;95599.91;5028587;28;20531;-75
2021/12/06 03:54:49;;;;;;;38.53;7.53;;;;;;;-1.93;100.00;95606.03;5030833;28;21039;-75
2021/12/06 03:57:17;;;;;;;96.57;10.53;;;;;;;-1.99;100.00;95606.41;5035759;28;20557;-75
2021/12/06 03:59:45;;;;;;;304.30;21.27;;;;;;;-2.07;100.00;95610.41;5035991;28;20455;-75
2021/12/06 04:02:11;;;;;;;111.10;12.43;;;;;;;-2.05;100.00;95624.00;5024209;28;20535;-75
2021/12/06 04:04:37;;;;;;;34.37;8.37;;;;;;;-2.02;100.00;95626.41;5009769;28;20468;-75
2021/12/06 04:07:05;;;;;;;153.23;16.00;;;;;;;-1.95;100.00;95625.06;5014081;28;20021;-75
2021/12/06 04:09:35;;;;;;;27.23;9.13;;;;;;;-1.84;100.00;95634.72;5011633;28;20474;-75
2021/12/06 04:12:06;;;;;;;41.73;9.53;;;;;;;-1.87;100.00;95643.47;5004192;28;20445;-75
2021/12/06 04:14:34;;;;;;;62.37;10.27;;;;;;;-1.81;100.00;95639.66;5048864;28;20467;-75
2021/12/06 04:17:00;;;;;;;370.07;30.27;;;;;;;-1.91;100.00;95636.88;5042111;28;21109;-75
2021/12/06 04:19:26;;;;;;;373.63;29.67;;;;;;;-1.93;100.00;95647.25;5017775;28;20460;-75
2021/12/06 04:21:53;;;;;;;242.60;20.70;;;;;;;-1.91;100.00;95644.59;5028280;28;20618;-75
2021/12/06 04:24:18;;;;;;;211.23;19.70;;;;;;;-1.95;100.00;95643.13;5017797;28;20552;-74
2021/12/06 04:26:46;;;;;;;176.27;17.43;;;;;;;-1.98;100.00;95645.88;5026284;28;20030;-75
2021/12/06 04:29:14;;;;;;;40.50;10.60;;;;;;;-1.91;100.00;95653.16;5026067;28;21001;-75
2021/12/06 04:31:49;;;;;;;406.80;26.50;;;;;;;-1.93;100.00;95649.84;5009303;28;20466;-75
2021/12/06 04:34:16;;;;;;;150.80;15.00;;;;;;;-1.90;100.00;95651.41;5024185;28;20473;-76
2021/12/06 04:36:43;;;;;;;95.37;10.83;;;;;;;-1.87;100.00;95660.69;5012802;28;20140;-75
2021/12/06 04:39:13;;;;;;;33.60;9.10;;;;;;;-1.84;100.00;95656.16;5025307;28;20465;-75
2021/12/06 04:41:42;;;;;;;55.47;10.10;;;;;;;-1.81;100.00;95657.69;5020524;28;20504;-75
2021/12/06 04:44:08;;;;;;;35.40;7.40;;;;;;;-1.73;100.00;95660.63;5010961;28;20464;-75
2021/12/06 04:46:35;;;;;;;12.27;6.47;;;;;;;-1.75;100.00;95663.28;5038647;28;20483;-75
2021/12/06 04:49:02;;;;;;;13.57;6.87;;;;;;;-1.76;100.00;95661.63;5042039;28;20555;-75
2021/12/06 04:51:28;;;;;;;44.67;8.50;;;;;;;-1.75;100.00;95671.00;5036121;28;20448;-75
2021/12/06 04:53:56;;;;;;;13.03;7.37;;;;;;;-1.77;100.00;95675.47;5006731;28;20458;-75
2021/12/06 04:56:32;;;;;;;34.03;8.47;;;;;;;-1.71;100.00;95675.06;5015201;28;20467;-75
2021/12/06 04:59:09;;;;;;;57.40;9.90;;;;;;;-1.75;100.00;95678.75;5033126;28;20472;-75
2021/12/06 05:01:36;;;;;;;12.03;7.27;;;;;;;-1.66;100.00;95674.78;5039003;28;20448;-75
2021/12/06 05:04:09;;;;;;;11.13;6.63;;;;;;;-1.72;100.00;95690.63;5036222;28;20475;-75
2021/12/06 05:06:38;;;;;;;17.43;7.37;;;;;;;-1.63;100.00;95692.63;5035719;28;20472;-76
2021/12/06 05:09:13;;;;;;;14.07;7.50;;;;;;;-1.59;100.00;95708.72;5015100;28;20818;-74
2021/12/06 05:11:41;;;;;;;17.23;7.60;;;;;;;-1.61;100.00;95706.25;5012907;28;20467;-74
2021/12/06 05:14:07;;;;;;;11.50;6.77;;;;;;;-1.59;100.00;95701.81;5042204;28;20466;-75
2021/12/06 05:16:35;;;;;;;15.53;7.50;;;;;;;-1.59;100.00;95701.81;5029406;28;21035;-75
2021/12/06 05:19:02;;;;;;;15.20;8.73;;;;;;;-1.58;100.00;95706.03;5024295;28;20475;-75
2021/12/06 05:21:33;;;;;;;11.77;7.07;;;;;;;-1.61;100.00;95706.25;5028235;28;20539;-75
2021/12/06 05:24:02;;;;;;;21.57;9.93;;;;;;;-1.64;100.00;95701.28;5016257;28;21027;-75
2021/12/06 05:26:28;;;;;;;18.87;8.70;;;;;;;-1.64;100.00;95710.75;5008236;28;20504;-75
2021/12/06 05:29:00;;;;;;;24.17;9.87;;;;;;;-1.60;100.00;95720.78;5018227;28;20449;-75
2021/12/06 05:31:27;;;;;;;48.30;16.67;;;;;;;-1.67;100.00;95722.94;5015419;28;20455;-76
2021/12/06 05:33:57;;;;;;;41.40;15.90;;;;;;;-1.61;100.00;95731.19;5037378;28;20482;-76
2021/12/06 05:36:23;;;;;;;27.30;14.27;;;;;;;-1.56;100.00;95731.72;5008474;28;20495;-76
2021/12/06 05:38:51;;;;;;;30.53;15.40;;;;;;;-1.61;100.00;95744.06;5032421;28;20451;-75
2021/12/06 05:41:17;;;;;;;22.10;12.87;;;;;;;-1.58;100.00;95743.88;5031850;28;20504;-76
2021/12/06 05:43:43;;;;;;;24.17;11.80;;;;;;;-1.56;100.00;95748.03;5028731;28;20456;-75
2021/12/06 05:46:09;;;;;;;97.73;12.10;;;;;;;-1.73;100.00;95748.28;5013452;28;20492;-75
2021/12/06 05:48:35;;;;;;;16.33;7.87;;;;;;;-1.40;100.00;95753.03;5019501;28;20137;-76
2021/12/06 05:51:01;;;;;;;74.17;10.30;;;;;;;-1.46;100.00;95758.59;5026465;28;20061;-76
2021/12/06 05:53:26;;;;;;;66.17;12.03;;;;;;;-1.57;100.00;95764.44;5026539;28;20459;-76
2021/12/06 05:55:52;;;;;;;73.40;10.97;;;;;;;-1.56;100.00;95771.22;5034384;28;20072;-75
2021/12/06 05:58:22;;;;;;;22.93;10.77;;;;;;;-1.50;100.00;95780.34;5036239;28;20439;-77
2021/12/06 06:00:50;;;;;;;26.30;10.97;;;;;;;-1.49;100.00;95774.25;5021514;28;20080;-76
2021/12/06 06:03:16;;;;;;;28.77;10.17;;;;;;;-1.48;100.00;95779.28;5026004;28;20575;-77
2021/12/06 06:05:42;;;;;;;36.77;11.03;;;;;;;-1.42;100.00;95783.25;5030142;28;20464;-77
2021/12/06 06:08:08;;;;;;;19.63;10.97;;;;;;;-1.44;100.00;95778.19;5042462;28;20044;-76
2021/12/06 06:10:35;;;;;;;100.43;13.00;;;;;;;-1.50;100.00;95782.91;5038759;28;20029;-76
2021/12/06 06:13:03;;;;;;;55.87;11.47;;;;;;;-1.48;100.00;95788.78;5010973;28;20485;-77
2021/12/06 06:15:29;;;;;;;91.87;11.17;;;;;;;-1.54;100.00;95787.44;5006004;28;20464;-75
2021/12/06 06:17:58;;;;;;;30.07;9.90;;;;;;;-1.46;100.00;95792.94;5030011;28;20464;-76
2021/12/06 06:20:39;;;;;;;141.70;17.13;;;;;;;-1.60;100.00;95799.91;5024419;28;20489;-76
2021/12/06 06:23:05;;;;;;;52.20;10.33;;;;;;;-1.56;100.00;95809.09;5033159;28;20925;-76
2021/12/06 06:25:30;;;;;;;23.37;10.03;;;;;;;-1.47;100.00;95805.94;5022708;28;20470;-76
2021/12/06 06:27:57;;;;;;;38.00;11.43;;;;;;;-1.45;100.00;95814.38;5037121;28;20072;-76
2021/12/06 06:30:23;;;;;;;33.07;10.40;;;;;;;-1.43;100.00;95815.13;5018532;28;20014;-76
2021/12/06 06:32:48;;;;;;;18.67;10.40;;;;;;;-1.35;100.00;95820.63;5023824;28;20475;-76
2021/12/06 06:35:15;;;;;;;28.27;10.37;;;;;;;-1.35;100.00;95820.63;5042433;28;20036;-75
2021/12/06 06:37:42;;;;;;;22.33;11.97;;;;;;;-1.30;100.00;95831.50;5017324;28;20038;-76
2021/12/06 06:40:08;;;;;;;87.10;12.80;;;;;;;-1.45;100.00;95824.69;5030379;28;20822;-76
2021/12/06 06:42:34;;;;;;;29.07;14.07;;;;;;;-1.42;100.00;95829.66;5008845;28;20480;-76
2021/12/06 06:45:00;;;;;;;40.97;14.87;;;;;;;-1.37;100.00;95831.97;5040687;28;21076;-76
2021/12/06 06:47:26;;;;;;;31.53;11.67;;;;;;;-1.37;100.00;95829.41;5044818;28;20037;-76
2021/12/06 06:49:53;;;;;;;50.77;13.60;;;;;;;-1.38;100.00;95832.88;5019165;28;20029;-76
2021/12/06 06:52:22;;;;;;;40.07;12.73;;;;;;;-1.34;100.00;95835.19;5012597;28;20049;-76
2021/12/06 06:54:48;;;;;;;35.63;13.67;;;;;;;-1.31;100.00;95837.59;5025522;28;20527;-76
2021/12/06 06:57:14;;;;;;;33.67;11.37;;;;;;;-1.34;100.00;95830.03;5031707;28;20456;-75
2021/12/06 06:59:42;;;;;;;48.73;12.80;;;;;;;-1.39;100.00;95833.81;5016690;28;20034;-76
2021/12/06 07:02:09;;;;;;;48.87;14.43;;;;;;;-1.38;100.00;95838.03;5032686;28;20064;-76
2021/12/06 07:04:35;;;;;;;76.33;13.60;;;;;;;-1.42;100.00;95845.16;5002428;28;20443;-75
2021/12/06 07:07:01;;;;;;;59.47;12.13;;;;;;;-1.43;100.00;95849.47;5027535;28;20844;-75
2021/12/06 07:09:26;;;;;;;43.83;11.27;;;;;;;-1.42;100.00;95845.16;5031838;28;20442;-75
2021/12/06 07:11:53;;;;;;;35.87;12.40;;;;;;;-1.42;100.00;95847.72;5026139;28;20087;-75
2021/12/06 07:14:19;;;;;;;37.70;12.83;;;;;;;-1.35;100.00;95846.41;5012498;28;20025;-76
2021/12/06 07:16:47;;;;;;;37.73;12.17;;;;;;;-1.35;100.00;95854.16;5017514;28;20546;-76
2021/12/06 07:19:13;;;;;;;75.43;15.83;;;;;;;-1.39;100.00;95851.88;5035360;28;20997;-76
2021/12/06 07:21:39;;;;;;;31.07;11.83;;;;;;;-1.38;100.00;95864.66;5048665;28;20467;-76
2021/12/06 07:24:05;;;;;;;39.87;13.13;;;;;;;-1.36;100.00;95867.97;5029439;28;20466;-76
2021/12/06 07:26:31;;;;;;;28.27;12.50;;;;;;;-1.40;100.00;95869.09;5038050;28;20207;-76
2021/12/06 07:28:57;;;;;;;25.37;11.33;;;;;;;-1.46;100.00;95864.31;5038780;28;20044;-76
2021/12/06 07:31:25;;;;;;;25.03;13.73;;;;;;;-1.43;100.00;95866.72;5018528;28;20455;-76
2021/12/06 07:33:52;;;;;;;27.57;13.40;;;;;;;-1.49;100.00;95870.50;5026111;28;20052;-76
2021/12/06 07:36:23;;;;;;;23.53;12.33;;;;;;;-1.40;100.00;95883.75;5039944;28;20459;-76
2021/12/06 07:38:52;;;;;;;29.67;12.17;;;;;;;-1.40;100.00;95882.00;5040534;28;20481;-76
2021/12/06 07:41:21;;;;;;;29.80;13.17;;;;;;;-1.41;100.00;95888.06;5019271;28;20471;-76
2021/12/06 07:43:47;;;;;;;39.50;16.00;;;;;;;-1.40;100.00;95894.91;5036309;28;20452;-75
2021/12/06 07:46:13;;;;;;;36.93;19.20;;;;;;;-1.36;100.00;95901.50;5041232;28;20460;-75
2021/12/06 07:48:39;;;;;;;26.37;14.50;;;;;;;-1.32;100.00;95897.00;5040029;28;20483;-75
2021/12/06 07:51:07;;;;;;;24.57;11.67;;;;;;;-1.40;100.00;95894.91;5024704;28;20543;-75
2021/12/06 07:53:35;;;;;;;27.83;12.77;;;;;;;-1.33;100.00;95896.16;5034859;28;20530;-75
2021/12/06 07:56:01;;;;;;;22.23;11.50;;;;;;;-1.27;100.00;95898.38;5035937;28;20455;-75
2021/12/06 07:58:27;;;;;;;25.30;11.87;;;;;;;-1.29;100.00;95901.97;5039271;28;20566;-75
2021/12/06 08:00:55;;;;;;;25.20;11.57;;;;;;;-1.30;100.00;95900.31;5031380;28;20468;-75
2021/12/06 08:03:22;;;;;;;23.17;12.27;;;;;;;-1.21;100.00;95899.72;5010340;28;20467;-76
2021/12/06 08:05:51;;;;;;;22.90;11.87;;;;;;;-1.20;100.00;95904.81;5040892;28;20486;-75
2021/12/06 08:08:22;;;;;;;19.80;10.40;;;;;;;-1.26;100.00;95907.75;5047657;28;20988;-75
2021/12/06 08:10:51;;;;;;;25.73;10.60;;;;;;;-1.15;100.00;95914.00;5032106;28;20833;-77
2021/12/06 08:13:20;;;;;;;24.90;12.67;;;;;;;-1.06;100.00;95918.59;5046720;28;20804;-75
2021/12/06 08:15:47;;;;;;;22.17;11.67;;;;;;;-1.08;100.00;95921.25;5047326;28;20648;-75
2021/12/06 08:18:13;;;;;;;21.47;11.40;;;;;;;-1.05;100.00;95922.81;5043969;28;20934;-75
2021/12/06 08:20:41;;;;;;;23.70;11.30;;;;;;;-1.02;100.00;95925.22;5025713;28;20543;-75
2021/12/06 08:23:07;;;;;;;23.00;11.67;;;;;;;-1.00;100.00;95926.78;5009394;28;20410;-75
2021/12/06 08:25:34;;;;;;;23.47;10.97;;;;;;;-1.05;100.00;95921.06;5034607;28;20475;-75
2021/12/06 08:28:00;;;;;;;21.77;10.30;;;;;;;-0.97;100.00;95926.59;5038734;28;20510;-75
2021/12/06 08:30:26;;;;;;;29.47;11.27;;;;;;;-0.97;100.00;95929.19;5026185;28;20451;-75
2021/12/06 08:32:55;;;;;;;21.40;10.17;;;;;;;-0.95;100.00;95927.31;5008569;28;20464;-75
2021/12/06 08:35:21;;;;;;;21.80;11.20;;;;;;;-0.90;100.00;95936.53;5035683;28;20554;-75
2021/12/06 08:37:48;;;;;;;19.00;10.33;;;;;;;-0.79;100.00;95929.75;5036510;28;20478;-75
2021/12/06 08:40:16;;;;;;;20.20;10.37;;;;;;;-0.82;100.00;95932.53;5022746;28;21008;-75
2021/12/06 08:42:43;;;;;;;22.03;10.60;;;;;;;-0.83;100.00;95937.81;5023004;28;20996;-75
2021/12/06 08:45:10;;;;;;;22.40;11.87;;;;;;;-0.73;100.00;95937.13;5015688;28;20567;-75
2021/12/06 08:47:37;;;;;;;37.83;12.47;;;;;;;-0.76;100.00;95936.50;5025729;28;20509;-75
2021/12/06 08:50:05;;;;;;;32.37;12.80;;;;;;;-0.73;100.00;95939.69;5014440;28;20515;-76
2021/12/06 08:52:31;;;;;;;46.93;15.43;;;;;;;-0.77;100.00;95946.00;5018236;28;20476;-75
2021/12/06 08:54:57;;;;;;;37.97;20.20;;;;;;;-0.65;100.00;95943.53;5023550;28;20479;-75
2021/12/06 08:57:22;;;;;;;45.33;14.10;;;;;;;-0.79;100.00;95952.16;5029376;28;20036;-76
2021/12/06 08:59:48;;;;;;;23.87;11.80;;;;;;;-0.65;100.00;95948.72;5015230;28;20032;-75
2021/12/06 09:02:14;;;;;;;32.93;15.27;;;;;;;-0.63;100.00;95957.19;5034074;28;20476;-76
2021/12/06 09:04:41;;;;;;;28.60;11.80;;;;;;;-0.60;100.00;95959.59;5049855;28;20025;-75
2021/12/06 09:07:13;;;;;;;19.10;11.40;;;;;;;-0.57;100.00;95961.94;5050907;28;20472;-76
2021/12/06 09:09:49;;;;;;;67.67;29.20;;;;;;;-0.52;100.00;95965.91;5015805;28;20463;-76
2021/12/06 09:12:27;;;;;;;66.80;21.20;;;;;;;-0.60;100.00;95962.16;5011247;28;20475;-76
2021/12/06 09:14:55;;;;;;;35.80;13.03;;;;;;;-0.56;100.00;95959.28;5023725;28;20547;-76
2021/12/06 09:17:24;;;;;;;33.07;13.23;;;;;;;-0.49;100.00;95964.88;5022391;28;20944;-75
2021/12/06 09:19:50;;;;;;;23.63;13.57;;;;;;;-0.49;100.00;95968.28;5033542;28;20448;-75
2021/12/06 09:22:18;;;;;;;32.40;13.67;;;;;;;-0.54;100.00;95966.91;5034823;28;21310;-75
2021/12/06 09:24:44;;;;;;;20.63;12.27;;;;;;;-0.40;100.00;95972.06;5017744;28;20461;-75
2021/12/06 09:27:11;;;;;;;32.57;13.43;;;;;;;-0.45;100.00;95968.09;5042314;28;20491;-75
2021/12/06 09:29:38;;;;;;;19.47;10.77;;;;;;;-0.36;100.00;95970.09;5011984;28;20634;-75
2021/12/06 09:32:07;;;;;;;23.77;10.80;;;;;;;-0.30;100.00;95973.13;5025032;28;21056;-76
2021/12/06 09:34:37;;;;;;;18.80;10.63;;;;;;;-0.24;100.00;95967.53;5023538;28;20461;-75
2021/12/06 09:37:02;;;;;;;20.40;11.07;;;;;;;-0.24;100.00;95970.13;5027321;28;20461;-76
2021/12/06 09:39:28;;;;;;;22.57;12.17;;;;;;;-0.08;100.00;95974.28;5014371;28;20470;-75
2021/12/06 09:41:54;;;;;;;19.23;10.93;;;;;;;-0.08;100.00;95988.03;5010931;28;20391;-75
2021/12/06 09:44:20;;;;;;;22.57;11.77;;;;;;;0.05;100.00;95990.66;5025480;28;20025;-76
2021/12/06 09:46:46;;;;;;;21.00;12.10;;;;;;;0.04;100.00;95994.19;5011629;28;20080;-76
2021/12/06 09:49:18;;;;;;;20.70;11.17;;;;;;;0.00;100.00;95990.16;5014056;28;20718;-75
2021/12/06 09:51:51;;;;;;;19.03;10.57;;;;;;;0.03;100.00;95996.84;5016507;28;21186;-75
2021/12/06 09:54:21;;;;;;;21.05;12.60;;;;;;;0.02;100.00;95985.69;5022431;28;21007;-75
2021/12/06 09:56:49;;;;;;;27.70;12.70;;;;;;;0.10;100.00;95992.94;5024742;28;20037;-76
2021/12/06 09:59:18;;;;;;;23.80;12.47;;;;;;;-0.04;100.00;95981.72;5011390;28;20555;-78
2021/12/06 10:01:54;;;;;;;26.67;13.30;;;;;;;0.08;100.00;95985.28;5023145;28;21036;-75
2021/12/06 10:04:23;;;;;;;23.40;12.87;;;;;;;-0.01;100.00;95986.72;5008211;28;21459;-75
2021/12/06 10:06:49;;;;;;;19.83;11.13;;;;;;;0.09;100.00;95981.75;5015490;28;20474;-76
2021/12/06 10:09:18;;;;;;;23.77;11.97;;;;;;;0.05;100.00;95980.31;5006636;28;20986;-75
2021/12/06 10:11:44;;;;;;;26.20;13.20;;;;;;;0.11;100.00;95985.09;5014487;28;20469;-75
2021/12/06 10:14:10;;;;;;;25.87;13.27;;;;;;;0.08;100.00;95969.78;5015132;28;20971;-76
2021/12/06 10:16:36;;;;;;;25.60;13.10;;;;;;;0.19;100.00;95976.81;5018217;28;20464;-76
2021/12/06 10:19:05;;;;;;;30.63;13.70;;;;;;;0.18;100.00;95970.81;5015062;28;20611;-76
2021/12/06 10:21:32;;;;;;;32.97;13.53;;;;;;;0.19;100.00;95967.28;5023755;28;21008;-75
2021/12/06 10:23:59;;;;;;;27.53;14.17;;;;;;;0.40;100.00;95961.59;5012822;28;20456;-76
2021/12/06 10:26:29;;;;;;;28.93;15.10;;;;;;;0.30;100.00;95963.97;5032932;28;20471;-75
2021/12/06 10:29:02;;;;;;;25.67;13.97;;;;;;;0.37;100.00;95959.22;5036171;28;20479;-75
2021/12/06 10:31:30;;;;;;;30.10;14.53;;;;;;;0.29;100.00;95970.09;5022477;28;20832;-74
2021/12/06 10:33:56;;;;;;;32.97;14.30;;;;;;;0.42;100.00;95963.16;5020499;28;20460;-75
2021/12/06 10:36:26;;;;;;;25.10;14.07;;;;;;;0.62;100.00;95959.22;5036249;28;21077;-75
2021/12/06 10:38:58;;;;;;;28.43;15.60;;;;;;;0.50;100.00;95954.88;5019999;28;20464;-76
2021/12/06 10:41:26;;;;;;;26.90;15.63;;;;;;;0.58;100.00;95962.13;5029357;28;21042;-76
2021/12/06 10:44:00;;;;;;;28.33;15.40;;;;;;;0.59;100.00;95959.44;5027747;28;20522;-77
2021/12/06 10:46:27;;;;;;;25.63;14.60;;;;;;;0.73;100.00;95963.66;5027706;28;21059;-75
2021/12/06 10:49:00;;;;;;;27.37;14.50;;;;;;;0.64;100.00;95966.91;5044127;28;20459;-75
2021/12/06 10:51:27;;;;;;;25.38;13.85;;;;;;;0.84;100.00;95961.16;5027874;28;20530;-75
2021/12/06 10:54:03;;;;;;;28.07;14.73;;;;;;;0.86;100.00;95951.53;5017290;28;20030;-76
2021/12/06 10:56:41;;;;;;;24.83;14.23;;;;;;;0.92;100.00;95960.63;5026626;28;20472;-76
2021/12/06 10:59:23;;;;;;;26.10;14.57;;;;;;;0.89;100.00;95953.91;5014907;28;20049;-76
2021/12/06 11:01:52;;;;;;;26.47;15.07;;;;;;;1.01;100.00;95949.63;5042910;28;20468;-76
2021/12/06 11:04:20;;;;;;;26.83;13.83;;;;;;;0.87;100.00;95954.94;5013182;28;20538;-75
2021/12/06 11:06:50;;;;;;;22.07;12.60;;;;;;;0.84;100.00;95958.59;5044890;28;20460;-74
2021/12/06 11:09:28;;;;;;;24.80;14.30;;;;;;;0.98;100.00;95960.22;5057117;28;20407;-75
2021/12/06 11:11:59;;;;;;;23.33;14.53;;;;;;;1.03;100.00;95952.94;5019079;28;20615;-75
2021/12/06 11:14:30;;;;;;;21.47;12.83;;;;;;;1.14;100.00;95945.25;5032844;28;20044;-77
2021/12/06 11:17:19;;;;;;;24.20;13.47;;;;;;;1.10;100.00;95942.97;5041794;28;20464;-77
2021/12/06 11:19:46;;;;;;;19.50;12.30;;;;;;;1.22;100.00;95941.28;5033292;28;20033;-77
2021/12/06 11:22:20;;;;;;;24.53;14.63;;;;;;;1.49;100.00;95941.91;5035823;28;20033;-78
2021/12/06 11:24:51;;;;;;;25.03;14.07;;;;;;;1.78;100.00;95938.97;5055350;28;20037;-77
2021/12/06 11:27:23;;;;;;;22.73;13.73;;;;;;;1.59;100.00;95935.09;5054978;28;20033;-76